createdAt,value
2023-02-13T00:00:28.826Z,15.7
2023-02-13T00:05:28.885Z,16.03
2023-02-13T00:10:28.853Z,15.89
2023-02-13T00:15:28.870Z,30.08
2023-02-13T00:20:28.843Z,35.38
2023-02-13T00:25:28.848Z,19.32
2023-02-13T00:30:28.873Z,55.34
2023-02-13T00:35:28.863Z,67.08
2023-02-13T00:40:28.843Z,63.76
2023-02-13T00:45:28.875Z,64.62
2023-02-13T00:50:28.886Z,66.9
2023-02-13T00:55:28.866Z,65.23
2023-02-13T01:00:28.891Z,64.97
2023-02-13T01:05:28.918Z,50.95
2023-02-13T01:10:28.862Z,42.9
2023-02-13T01:15:28.910Z,34.83
2023-02-13T01:20:28.882Z,49.95
2023-02-13T01:25:28.883Z,48.89
2023-02-13T01:30:28.864Z,38.29
2023-02-13T01:35:28.884Z,52.81
2023-02-13T01:40:28.866Z,49.33
2023-02-13T01:45:28.877Z,41.18
2023-02-13T01:50:28.876Z,30.4
2023-02-13T01:55:28.884Z,22.11
2023-02-13T02:00:28.875Z,17.99
2023-02-13T02:05:28.912Z,16.07
2023-02-13T02:10:28.873Z,14.11
2023-02-13T02:15:28.892Z,13.47
2023-02-13T02:20:28.881Z,14.09
2023-02-13T02:25:28.902Z,14.35
2023-02-13T02:30:28.970Z,13.93
2023-02-13T02:35:28.892Z,13.18
2023-02-13T02:40:28.902Z,12.1
2023-02-13T02:45:28.946Z,12.03
2023-02-13T02:50:28.893Z,12.76
2023-02-13T02:55:28.953Z,12.34
2023-02-13T03:00:28.897Z,12.38
2023-02-13T03:05:28.892Z,12.82
2023-02-13T03:10:28.907Z,12.58
2023-02-13T03:15:28.917Z,12.63
2023-02-13T03:20:28.931Z,12.92
2023-02-13T03:25:28.907Z,12.98
2023-02-13T03:30:28.940Z,13.51
2023-02-13T03:35:28.914Z,12.95
2023-02-13T03:40:28.904Z,12.78
2023-02-13T03:45:28.923Z,12.67
2023-02-13T03:50:28.897Z,12.92
2023-02-13T03:55:28.963Z,12.86
2023-02-13T04:00:28.910Z,12.61
2023-02-13T04:05:28.914Z,12.87
2023-02-13T04:10:28.928Z,12.96
2023-02-13T04:15:28.956Z,13.07
2023-02-13T04:20:28.929Z,13.17
2023-02-13T04:25:28.922Z,13.32
2023-02-13T04:30:28.949Z,13.42
2023-02-13T04:35:28.941Z,14.1
2023-02-13T04:40:28.927Z,14.04
2023-02-13T04:45:28.949Z,14.19
2023-02-13T04:50:28.925Z,14.47
2023-02-13T04:55:28.980Z,14.59
2023-02-13T05:00:28.931Z,14.63
2023-02-13T05:05:28.940Z,14.66
2023-02-13T05:10:28.945Z,15.03
2023-02-13T05:20:28.945Z,16.2
2023-02-13T05:25:28.943Z,16.81
2023-02-13T05:30:28.962Z,17.05
2023-02-13T05:35:28.957Z,17.49
2023-02-13T05:40:28.954Z,17.73
2023-02-13T05:45:28.974Z,18.24
2023-02-13T05:50:29.004Z,18.29
2023-02-13T05:55:28.995Z,18.07
2023-02-13T06:00:28.964Z,18.69
2023-02-13T06:05:28.958Z,18.56
2023-02-13T06:10:28.987Z,18.21
2023-02-13T06:15:28.970Z,18.77
2023-02-13T06:20:28.957Z,19.28
2023-02-13T06:25:28.963Z,19.54
2023-02-13T06:30:28.999Z,19.08
2023-02-13T06:35:28.978Z,19.32
2023-02-13T06:40:28.964Z,17.96
2023-02-13T06:45:28.986Z,16.66
2023-02-13T06:50:28.979Z,16.85
2023-02-13T06:55:28.993Z,15.84
2023-02-13T07:00:28.973Z,16.05
2023-02-13T07:05:28.977Z,15.12
2023-02-13T07:10:28.987Z,14.11
2023-02-13T07:15:29.019Z,15.89
2023-02-13T07:20:29.020Z,16.29
2023-02-13T07:25:28.991Z,13.5
2023-02-13T07:30:29.084Z,13.89
2023-02-13T07:35:28.993Z,13.72
2023-02-13T07:40:29.154Z,14.35
2023-02-13T07:45:29.002Z,14.13
2023-02-13T07:50:29.024Z,14.1
2023-02-13T07:55:29.009Z,14.45
2023-02-13T08:00:29.012Z,17.58
2023-02-13T08:05:29.032Z,20.02
2023-02-13T08:10:29.003Z,15.63
2023-02-13T08:15:29.052Z,16.09
2023-02-13T08:20:29.026Z,16.17
2023-02-13T08:25:29.033Z,18.46
2023-02-13T08:30:29.005Z,17.22
2023-02-13T08:35:29.017Z,18.82
2023-02-13T08:40:29.003Z,16.8
2023-02-13T08:45:29.013Z,16.9
2023-02-13T08:50:29.019Z,17.5
2023-02-13T08:55:29.035Z,19.55
2023-02-13T09:00:29.018Z,19.82
2023-02-13T09:05:29.035Z,17.81
2023-02-13T09:10:29.019Z,20.63
2023-02-13T09:15:29.051Z,19.98
2023-02-13T09:20:29.017Z,18.75
2023-02-13T09:25:29.045Z,21.39
2023-02-13T09:30:29.128Z,29.93
2023-02-13T09:35:29.076Z,37.63
2023-02-13T09:40:29.071Z,26.21
2023-02-13T09:45:29.044Z,20.96
2023-02-13T09:50:29.059Z,20.25
2023-02-13T09:55:29.057Z,20.31
2023-02-13T10:00:29.045Z,21.2
2023-02-13T10:05:29.134Z,25.6
2023-02-13T10:10:29.045Z,19.51
2023-02-13T10:15:29.109Z,19.57
2023-02-13T10:20:29.055Z,18.81
2023-02-13T10:25:29.069Z,18.27
2023-02-13T10:30:29.103Z,18.49
2023-02-13T10:35:29.069Z,19.97
2023-02-13T10:40:29.101Z,17.45
2023-02-13T10:45:29.069Z,17.26
2023-02-13T10:50:29.067Z,17.26
2023-02-13T10:55:29.075Z,16.31
2023-02-13T11:00:29.067Z,15.68
2023-02-13T11:05:29.077Z,14.94
2023-02-13T11:10:29.107Z,14.65
2023-02-13T11:15:29.085Z,14.52
2023-02-13T11:20:29.071Z,14
2023-02-13T11:25:29.074Z,14.09
2023-02-13T11:30:29.097Z,13.78
2023-02-13T11:35:29.118Z,13.75
2023-02-13T11:40:29.074Z,13.38
2023-02-13T11:45:29.088Z,13.45
2023-02-13T11:50:29.087Z,12.66
2023-02-13T11:55:29.089Z,12.33
2023-02-13T12:00:29.092Z,19.96
2023-02-13T12:05:29.110Z,14.24
2023-02-13T12:10:29.127Z,13.76
2023-02-13T12:15:29.106Z,15.5
2023-02-13T12:20:29.093Z,15.34
2023-02-13T12:25:29.106Z,15.65
2023-02-13T12:30:29.147Z,16.95
2023-02-13T12:35:29.116Z,15.21
2023-02-13T12:40:29.103Z,18.12
2023-02-13T12:45:29.130Z,24.48
2023-02-13T12:50:29.106Z,21.93
2023-02-13T12:55:29.124Z,19.3
2023-02-13T13:00:29.140Z,16.77
2023-02-13T13:05:29.126Z,16.44
2023-02-13T13:10:29.126Z,13.45
2023-02-13T13:15:29.129Z,13.15
2023-02-13T13:20:29.137Z,12.72
2023-02-13T13:25:29.123Z,13.31
2023-02-13T13:30:29.274Z,13.02
2023-02-13T13:35:29.135Z,14.6
2023-02-13T13:40:29.236Z,16.61
2023-02-13T13:45:29.145Z,18.07
2023-02-13T13:50:29.198Z,14.79
2023-02-13T13:55:29.145Z,9.96
2023-02-13T14:00:29.134Z,7.97
2023-02-13T14:05:29.169Z,7.18
2023-02-13T14:10:29.140Z,9.05
2023-02-13T14:15:29.187Z,10.98
2023-02-13T14:20:29.176Z,14.44
2023-02-13T14:25:29.153Z,15.81
2023-02-13T14:30:29.193Z,14.79
2023-02-13T14:35:29.148Z,15.9
2023-02-13T14:40:29.160Z,15.66
2023-02-13T14:45:29.177Z,14.97
2023-02-13T14:50:29.192Z,14.1
2023-02-13T14:55:29.169Z,14.13
2023-02-13T15:00:29.164Z,13.33
2023-02-13T15:05:29.169Z,13.06
2023-02-13T15:10:29.192Z,13.98
2023-02-13T15:15:29.204Z,17.86
2023-02-13T15:20:29.180Z,22.15
2023-02-13T15:25:29.185Z,14.08
2023-02-13T15:30:29.190Z,14.11
2023-02-13T15:35:29.185Z,15.62
2023-02-13T15:40:29.174Z,13.53
2023-02-13T15:45:29.205Z,16.66
2023-02-13T15:50:29.174Z,17.49
2023-02-13T15:55:29.179Z,18.52
2023-02-13T16:00:29.227Z,16.34
2023-02-13T16:05:39.244Z,16.67
2023-02-13T16:10:29.197Z,16.04
2023-02-13T16:15:29.177Z,15.96
2023-02-13T16:20:29.188Z,14.53
2023-02-13T16:25:29.196Z,14.01
2023-02-13T16:30:31.397Z,13.81
2023-02-13T16:35:29.202Z,13.46
2023-02-13T16:40:29.205Z,14.78
2023-02-13T16:45:29.235Z,14.81
2023-02-13T16:50:29.201Z,13.47
2023-02-13T16:55:29.213Z,13.24
2023-02-13T17:00:29.201Z,13.14
2023-02-13T17:05:29.258Z,14.39
2023-02-13T17:10:29.225Z,15.17
2023-02-13T17:15:29.258Z,24.13
2023-02-13T17:20:29.218Z,18.58
2023-02-13T17:25:29.222Z,15.89
2023-02-13T17:30:29.278Z,16.04
2023-02-13T17:35:29.231Z,17.06
2023-02-13T17:40:29.242Z,14.87
2023-02-13T17:45:29.234Z,14.04
2023-02-13T17:50:29.269Z,13.04
2023-02-13T17:55:29.233Z,15.59
2023-02-13T18:00:29.224Z,11.98
2023-02-13T18:05:29.254Z,10.9
2023-02-13T18:10:29.223Z,10.16
2023-02-13T18:15:30.652Z,10.51
2023-02-13T18:20:29.252Z,9.67
2023-02-13T18:25:29.261Z,9.14
2023-02-13T18:30:29.297Z,9.62
2023-02-13T18:35:29.243Z,10.15
2023-02-13T18:40:29.235Z,10.49
2023-02-13T18:45:29.261Z,12.21
2023-02-13T18:50:29.238Z,14.6
2023-02-13T18:55:29.254Z,15.7
2023-02-13T19:00:29.266Z,16.78
2023-02-13T19:05:29.253Z,15.67
2023-02-13T19:10:29.246Z,16.88
2023-02-13T19:15:29.274Z,16.28
2023-02-13T19:20:29.248Z,12.91
2023-02-13T19:25:29.260Z,11.92
2023-02-13T19:30:29.257Z,11.79
2023-02-13T19:35:29.265Z,12.34
2023-02-13T19:40:29.290Z,11.17
2023-02-13T19:45:29.295Z,10.1
2023-02-13T19:50:29.266Z,10.08
2023-02-13T19:55:29.284Z,9.53
2023-02-13T20:00:29.268Z,9.28
2023-02-13T20:05:29.282Z,8.85
2023-02-13T20:10:29.272Z,8.38
2023-02-13T20:15:30.983Z,8.48
2023-02-13T20:20:29.268Z,8.85
2023-02-13T20:25:29.302Z,8.69
2023-02-13T20:30:29.316Z,8.65
2023-02-13T20:35:29.280Z,8.83
2023-02-13T20:40:29.300Z,8.9
2023-02-13T20:45:29.327Z,8.68
2023-02-13T20:55:29.296Z,8.85
2023-02-13T21:00:29.277Z,8.7
2023-02-13T21:05:29.329Z,8.57
2023-02-13T21:10:29.286Z,8.85
2023-02-13T21:15:29.299Z,9.05
2023-02-13T21:20:29.282Z,9.94
2023-02-13T21:25:29.320Z,9.52
2023-02-13T21:30:29.343Z,9.64
2023-02-13T21:35:29.329Z,9.99
2023-02-13T21:40:29.295Z,10.02
2023-02-13T21:45:29.321Z,10.22
2023-02-13T21:50:29.308Z,10.86
2023-02-13T21:55:29.320Z,10.33
2023-02-13T22:00:29.314Z,10.84
2023-02-13T22:05:29.321Z,10.65
2023-02-13T22:10:29.319Z,11.12
2023-02-13T22:15:29.342Z,11.45
2023-02-13T22:20:29.323Z,11.48
2023-02-13T22:25:29.393Z,11.5
2023-02-13T22:30:29.506Z,10.94
2023-02-13T22:35:29.339Z,11.33
2023-02-13T22:40:29.336Z,10.99
2023-02-13T22:45:29.352Z,11.05
2023-02-13T22:50:29.329Z,10.78
2023-02-13T22:55:29.378Z,10.01
2023-02-13T23:00:29.328Z,10.27
2023-02-13T23:05:29.340Z,10.02
2023-02-13T23:10:29.333Z,10.3
2023-02-13T23:15:29.349Z,10.39
2023-02-13T23:20:29.346Z,10.76
2023-02-13T23:25:29.337Z,11.31
2023-02-13T23:30:29.358Z,12.36
2023-02-13T23:35:29.384Z,12.3
2023-02-13T23:40:29.354Z,12.42
2023-02-13T23:45:29.356Z,12.19
2023-02-13T23:50:29.342Z,12.04
2023-02-13T23:55:29.394Z,11.97
